Time,TemperatureF,DewpointF,PressureIn,WindDirection,WindDirectionDegrees,WindSpeedMPH,WindSpeedGustMPH,Humidity,HourlyPrecipIn,Conditions,Clouds,dailyrainin,SoftwareType,DateUTC
2013-06-25 00:00:00,65.1,63.6,29.91,NE,45,0.0,1.0,95,0.11,,---,0.01,VWS V14.01,2013-06-25 04:00:00,
2013-06-25 00:15:00,64.6,63.4,29.90,NE,45,0.0,5.0,96,0.09,,---,0.01,VWS V14.01,2013-06-25 04:15:00,
2013-06-25 00:30:00,64.5,63.3,29.93,WNW,292,0.0,3.0,96,0.06,,---,0.01,VWS V14.01,2013-06-25 04:30:00,
2013-06-25 00:45:00,64.4,63.2,29.91,East,90,0.0,1.0,96,0.03,,---,0.01,VWS V14.01,2013-06-25 04:45:00,
2013-06-25 01:00:00,64.0,62.8,29.92,East,90,0.0,0.0,96,0.01,,---,0.01,VWS V14.01,2013-06-25 05:00:00,
2013-06-25 01:15:00,63.5,62.3,29.92,East,90,0.0,0.0,96,0.00,,---,0.01,VWS V14.01,2013-06-25 05:15:00,
2013-06-25 01:30:00,63.1,61.9,29.92,East,90,0.0,0.0,96,0.00,,---,0.01,VWS V14.01,2013-06-25 05:30:00,
2013-06-25 01:45:00,63.0,61.8,29.92,East,90,0.0,0.0,96,0.00,,---,0.01,VWS V14.01,2013-06-25 05:45:00,
2013-06-25 02:00:00,63.0,62.1,29.92,East,90,0.0,0.0,97,0.00,,---,0.01,VWS V14.01,2013-06-25 06:00:00,
2013-06-25 02:15:00,63.1,62.2,29.92,East,90,0.0,0.0,97,0.00,,---,0.01,VWS V14.01,2013-06-25 06:15:00,
2013-06-25 02:30:00,62.8,61.9,29.91,East,90,0.0,0.0,97,0.00,,---,0.01,VWS V14.01,2013-06-25 06:30:00,
2013-06-25 02:45:00,62.7,61.8,29.91,East,90,0.0,0.0,97,0.00,,---,0.01,VWS V14.01,2013-06-25 06:45:00,
2013-06-25 03:00:00,62.8,61.9,29.91,East,90,0.0,0.0,97,0.00,,---,0.01,VWS V14.01,2013-06-25 07:00:00,
2013-06-25 03:15:00,62.7,61.8,29.91,East,90,0.0,0.0,97,0.00,,---,0.01,VWS V14.01,2013-06-25 07:15:00,
2013-06-25 03:30:00,62.5,61.6,29.91,East,90,0.0,0.0,97,0.00,,---,0.01,VWS V14.01,2013-06-25 07:30:00,
2013-06-25 03:45:00,62.2,61.3,29.91,East,90,0.0,0.0,97,0.00,,---,0.01,VWS V14.01,2013-06-25 07:45:00,
2013-06-25 04:00:00,62.1,61.2,29.91,East,90,0.0,0.0,97,0.00,,---,0.01,VWS V14.01,2013-06-25 08:00:00,
2013-06-25 04:15:00,62.1,61.5,29.91,East,90,0.0,0.0,98,0.00,,---,0.01,VWS V14.01,2013-06-25 08:15:00,
2013-06-25 04:30:00,62.2,61.6,29.90,East,90,0.0,0.0,98,0.00,,---,0.01,VWS V14.01,2013-06-25 08:30:00,
2013-06-25 04:45:00,62.2,61.6,29.90,East,90,0.0,0.0,98,0.00,,---,0.01,VWS V14.01,2013-06-25 08:45:00,
2013-06-25 05:00:00,62.2,61.6,29.90,East,90,0.0,0.0,98,0.00,,---,0.01,VWS V14.01,2013-06-25 09:00:00,
2013-06-25 05:15:00,62.0,61.4,29.90,East,90,0.0,0.0,98,0.00,,---,0.01,VWS V14.01,2013-06-25 09:15:00,
2013-06-25 05:30:00,62.0,61.4,29.90,East,90,0.0,0.0,98,0.00,,---,0.01,VWS V14.01,2013-06-25 09:30:00,
2013-06-25 05:45:00,62.2,61.6,29.90,East,90,0.0,0.0,98,0.00,,---,0.01,VWS V14.01,2013-06-25 09:45:00,
2013-06-25 06:00:00,62.4,61.8,29.90,East,90,0.0,0.0,98,0.00,,---,0.01,VWS V14.01,2013-06-25 10:00:00,
2013-06-25 06:15:00,62.6,62.0,29.90,East,90,0.0,0.0,98,0.00,,---,0.01,VWS V14.01,2013-06-25 10:15:00,
2013-06-25 06:30:00,62.9,62.3,29.90,East,90,0.0,0.0,98,0.00,,---,0.01,VWS V14.01,2013-06-25 10:30:00,
2013-06-25 06:45:00,63.3,62.7,29.90,East,90,0.0,0.0,98,0.00,,---,0.01,VWS V14.01,2013-06-25 10:45:00,
2013-06-25 07:00:00,63.7,63.1,29.90,East,90,0.0,0.0,98,0.00,,---,0.01,VWS V14.01,2013-06-25 11:00:00,
2013-06-25 07:15:00,64.1,63.5,29.90,WSW,248,0.0,1.0,98,0.00,,---,0.01,VWS V14.01,2013-06-25 11:15:00,
2013-06-25 07:30:00,64.5,63.9,29.89,West,270,0.0,1.0,98,0.00,,---,0.01,VWS V14.01,2013-06-25 11:30:00,
2013-06-25 07:45:00,64.7,64.1,29.89,NW,315,0.0,1.0,98,0.00,,---,0.01,VWS V14.01,2013-06-25 11:45:00,
2013-06-25 08:00:00,65.0,64.4,29.88,NW,315,0.0,0.0,98,0.00,,---,0.01,VWS V14.01,2013-06-25 12:00:00,
2013-06-25 08:15:00,65.3,64.7,29.89,North,0,0.0,1.0,98,0.00,,---,0.01,VWS V14.01,2013-06-25 12:15:00,
2013-06-25 08:30:00,66.1,65.5,29.88,NE,45,0.0,1.0,98,0.00,,---,0.01,VWS V14.01,2013-06-25 12:30:00,
2013-06-25 08:45:00,67.1,66.5,29.88,NE,45,0.0,0.0,98,0.00,,---,0.01,VWS V14.01,2013-06-25 12:45:00,
2013-06-25 09:00:00,68.0,67.1,29.87,NNE,22,0.0,1.0,97,0.00,,---,0.01,VWS V14.01,2013-06-25 13:00:00,
2013-06-25 09:15:00,69.7,67.9,29.87,NNE,22,0.0,1.0,94,0.00,,---,0.01,VWS V14.01,2013-06-25 13:15:00,
2013-06-25 09:30:00,71.2,68.4,29.87,ENE,68,0.0,4.0,91,0.00,,---,0.01,VWS V14.01,2013-06-25 13:30:00,
2013-06-25 09:45:00,72.9,69.5,29.87,North,0,0.0,2.0,89,0.00,,---,0.01,VWS V14.01,2013-06-25 13:45:00,
2013-06-25 10:00:00,74.6,70.1,29.87,West,270,0.0,1.0,86,0.00,,---,0.01,VWS V14.01,2013-06-25 14:00:00,
2013-06-25 10:15:00,75.3,70.5,29.86,North,0,0.0,3.0,85,0.00,,---,0.01,VWS V14.01,2013-06-25 14:15:00,
2013-06-25 10:30:00,75.7,70.9,29.86,West,270,0.0,2.0,85,0.00,,---,0.01,VWS V14.01,2013-06-25 14:30:00,
2013-06-25 10:45:00,76.7,71.9,29.86,West,270,0.0,2.0,85,0.00,,---,0.01,VWS V14.01,2013-06-25 14:45:00,
2013-06-25 11:00:00,78.6,74.1,29.86,WNW,292,0.0,2.0,86,0.00,,---,0.01,VWS V14.01,2013-06-25 15:00:00,
2013-06-25 11:15:00,78.3,71.6,29.86,North,0,0.0,1.0,80,0.00,,---,0.01,VWS V14.01,2013-06-25 15:15:00,
2013-06-25 11:30:00,79.3,73.0,29.86,North,0,0.0,1.0,81,0.00,,---,0.01,VWS V14.01,2013-06-25 15:30:00,
2013-06-25 11:45:00,80.7,74.3,29.85,ESE,112,0.0,2.0,81,0.00,,---,0.01,VWS V14.01,2013-06-25 15:45:00,
2013-06-25 12:00:00,81.9,74.8,29.84,SSW,202,0.0,2.0,79,0.00,,---,0.01,VWS V14.01,2013-06-25 16:00:00,
2013-06-25 12:15:00,82.7,74.4,29.83,South,180,1.0,4.0,76,0.00,,---,0.01,VWS V14.01,2013-06-25 16:15:00,
2013-06-25 12:30:00,82.9,72.5,29.83,WSW,248,0.0,5.0,71,0.00,,---,0.01,VWS V14.01,2013-06-25 16:30:00,
2013-06-25 12:45:00,83.7,72.5,29.82,South,180,1.0,5.0,69,0.00,,---,0.01,VWS V14.01,2013-06-25 16:45:00,
2013-06-25 13:00:00,84.8,73.9,29.82,WSW,248,0.0,4.0,70,0.00,,---,0.01,VWS V14.01,2013-06-25 17:00:00,
2013-06-25 13:15:00,85.7,73.9,29.80,South,180,0.0,5.0,68,0.00,,---,0.01,VWS V14.01,2013-06-25 17:15:00,
2013-06-25 13:30:00,86.3,71.3,29.79,South,180,0.0,3.0,61,0.00,,---,0.01,VWS V14.01,2013-06-25 17:30:00,
2013-06-25 13:45:00,85.8,70.8,29.79,SE,135,1.0,8.0,61,0.00,,---,0.01,VWS V14.01,2013-06-25 17:45:00,
2013-06-25 14:00:00,85.8,72.2,29.77,South,180,1.0,5.0,64,0.00,,---,0.01,VWS V14.01,2013-06-25 18:00:00,
2013-06-25 14:15:00,85.4,71.4,29.77,South,180,2.0,8.0,63,0.00,,---,0.01,VWS V14.01,2013-06-25 18:15:00,
2013-06-25 14:30:00,85.2,71.2,29.76,South,180,3.0,10.0,63,0.00,,---,0.01,VWS V14.01,2013-06-25 18:30:00,
2013-06-25 14:45:00,83.3,71.6,29.75,South,180,1.0,9.0,68,0.00,,---,0.01,VWS V14.01,2013-06-25 18:45:00,
2013-06-25 15:00:00,78.9,70.3,29.77,SW,225,1.0,13.0,75,0.01,,---,0.02,VWS V14.01,2013-06-25 19:00:00,
2013-06-25 15:15:00,71.8,67.7,29.77,SSE,158,2.0,19.0,87,0.07,,---,0.08,VWS V14.01,2013-06-25 19:15:00,
2013-06-25 15:30:00,73.7,69.3,29.74,East,90,1.0,4.0,86,0.08,,---,0.09,VWS V14.01,2013-06-25 19:30:00,
2013-06-25 15:45:00,74.0,69.6,29.75,West,270,0.0,2.0,86,0.08,,---,0.09,VWS V14.01,2013-06-25 19:45:00,
2013-06-25 16:00:00,72.5,69.1,29.75,SSW,202,0.0,2.0,89,0.08,,---,0.09,VWS V14.01,2013-06-25 20:00:00,
2013-06-25 16:15:00,71.0,68.2,29.77,NE,45,0.0,3.0,91,0.10,,---,0.12,VWS V14.01,2013-06-25 20:15:00,
2013-06-25 16:30:00,69.2,66.5,29.83,ENE,68,3.0,19.0,91,0.67,,---,0.75,VWS V14.01,2013-06-25 20:30:00,
2013-06-25 16:45:00,68.0,65.3,29.83,NE,45,4.0,12.0,91,1.18,,---,1.27,VWS V14.01,2013-06-25 20:45:00,
2013-06-25 17:00:00,67.4,65.3,29.82,NE,45,3.0,10.0,93,1.29,,---,1.38,VWS V14.01,2013-06-25 21:00:00,
2013-06-25 17:15:00,67.2,65.1,29.81,NE,45,2.0,6.0,93,1.32,,---,1.41,VWS V14.01,2013-06-25 21:15:00,
2013-06-25 17:30:00,67.5,66.0,29.80,NNE,22,0.0,4.0,95,1.31,,---,1.43,VWS V14.01,2013-06-25 21:30:00,
2013-06-25 17:45:00,67.9,66.4,29.80,SW,225,0.0,7.0,95,0.68,,---,1.43,VWS V14.01,2013-06-25 21:45:00,
2013-06-25 18:00:00,67.7,66.2,29.80,SW,225,0.0,0.0,95,0.16,,---,1.43,VWS V14.01,2013-06-25 22:00:00,
2013-06-25 18:15:00,67.4,65.9,29.81,South,180,0.0,2.0,95,0.05,,---,1.43,VWS V14.01,2013-06-25 22:15:00,
2013-06-25 18:30:00,67.0,65.5,29.80,South,180,0.0,3.0,95,0.02,,---,1.43,VWS V14.01,2013-06-25 22:30:00,
2013-06-25 18:45:00,66.8,65.3,29.80,South,180,1.0,8.0,95,0.00,,---,1.43,VWS V14.01,2013-06-25 22:45:00,
2013-06-25 19:00:00,66.7,65.2,29.79,SSW,202,0.0,3.0,95,0.00,,---,1.43,VWS V14.01,2013-06-25 23:00:00,
2013-06-25 19:15:00,66.7,65.5,29.79,SSW,202,0.0,0.0,96,0.00,,---,1.43,VWS V14.01,2013-06-25 23:15:00,
2013-06-25 19:30:00,66.8,65.6,29.79,SSW,202,0.0,0.0,96,0.01,,---,1.44,VWS V14.01,2013-06-25 23:30:00,
2013-06-25 19:45:00,66.7,65.5,29.79,SSW,202,0.0,0.0,96,0.01,,---,1.44,VWS V14.01,2013-06-25 23:45:00,
2013-06-25 20:00:00,66.5,65.3,29.78,SSW,202,0.0,0.0,96,0.01,,---,1.44,VWS V14.01,2013-06-26 00:00:00,
2013-06-25 20:15:00,66.3,65.1,29.78,SSW,202,0.0,0.0,96,0.01,,---,1.44,VWS V14.01,2013-06-26 00:15:00,
2013-06-25 20:30:00,66.1,65.2,29.77,SSW,202,0.0,0.0,97,0.02,,---,1.45,VWS V14.01,2013-06-26 00:30:00,
2013-06-25 20:45:00,65.9,65.0,29.76,SSW,202,0.0,0.0,97,0.01,,---,1.45,VWS V14.01,2013-06-26 00:45:00,
2013-06-25 21:00:00,65.7,64.8,29.76,SSW,202,0.0,0.0,97,0.01,,---,1.45,VWS V14.01,2013-06-26 01:00:00,
2013-06-25 21:15:00,65.6,64.7,29.77,SSW,202,0.0,0.0,97,0.01,,---,1.45,VWS V14.01,2013-06-26 01:15:00,
2013-06-25 21:30:00,65.6,64.7,29.77,SSW,202,0.0,0.0,97,0.01,,---,1.45,VWS V14.01,2013-06-26 01:30:00,
2013-06-25 21:45:00,65.7,64.8,29.78,SSW,202,0.0,0.0,97,0.00,,---,1.45,VWS V14.01,2013-06-26 01:45:00,
2013-06-25 22:00:00,65.5,64.6,29.78,SSW,202,0.0,0.0,97,0.00,,---,1.45,VWS V14.01,2013-06-26 02:00:00,
2013-06-25 22:15:00,65.4,64.5,29.78,SSW,202,0.0,0.0,97,0.00,,---,1.45,VWS V14.01,2013-06-26 02:15:00,
2013-06-25 22:30:00,65.4,64.5,29.77,SSW,202,0.0,0.0,97,0.00,,---,1.45,VWS V14.01,2013-06-26 02:30:00,
2013-06-25 22:45:00,65.1,64.2,29.77,SSW,202,0.0,0.0,97,0.00,,---,1.45,VWS V14.01,2013-06-26 02:45:00,
2013-06-25 23:00:00,64.9,64.0,29.77,SSW,202,0.0,0.0,97,0.00,,---,1.45,VWS V14.01,2013-06-26 03:00:00,
2013-06-25 23:15:00,64.4,63.5,29.77,SSW,202,0.0,0.0,97,0.00,,---,1.45,VWS V14.01,2013-06-26 03:15:00,
2013-06-25 23:30:00,64.3,63.4,29.78,SSW,202,0.0,0.0,97,0.00,,---,1.45,VWS V14.01,2013-06-26 03:30:00,
2013-06-25 23:45:00,64.0,63.1,29.77,SSW,202,0.0,0.0,97,0.00,,---,1.45,VWS V14.01,2013-06-26 03:45:00,